Flight Track Log - Related Links

Times and Time Zones

All times are in EDT time to prevent confusion due to time zone crossing. See the ASQ6121 flight status page for this flight to view local times or setup timezone preferences in your user account.

Time Position Orientation Groundspeed Altitude Reporting Facility
EDT Latitude Longitude Course Direction KTS MPH feet Rate Location/Type
Fri 01:07:48 PM 41.9667 -87.9500 180° South 183 211 2,200  Level Chicago TRACON
Fri 01:08:49 PM 41.9167 -88.0000 217° Southwest 238 274 3,400 1,333 Climbing Chicago TRACON
Fri 01:10:12 PM 41.8133 -87.9978 179° South 262 302 5,400 1,862 Climbing Chicago Center
Fri 01:11:14 PM 41.7339 -87.9931 177° South 265 305 7,900 2,081 Climbing Chicago Center
Fri 01:12:00 PM 41.5622 -88.1839 189° South  Level Estimated
Fri 01:12:16 PM 41.6542 -88.0000 184° South 292 336 9,700  Level Chicago Center
Fri 01:13:00 PM 41.4787 -88.2388 180° South  Level Estimated
Fri 01:13:18 PM 41.5619 -88.0111 185° South 309 356 11,700  Level Chicago Center
Fri 01:14:20 PM 41.4686 -88.0222 185° South 339 390 12,600 968 Climbing Chicago Center
Fri 01:15:22 PM 41.3581 -88.0467 189° South 375 432 13,700 1,161 Climbing Chicago Center
Fri 01:16:24 PM 41.2614 -88.1044 204° Southwest 381 438 15,000 1,258 Climbing Chicago Center
Fri 01:17:26 PM 41.1581 -88.1697 205° Southwest 383 441 16,300 1,210 Climbing Chicago Center
Fri 01:18:28 PM 41.0597 -88.2303 205° Southwest 387 445 17,500 927 Climbing Chicago Center
Fri 01:19:29 PM 40.9686 -88.2881 206° Southwest 389 448 18,200 927 Climbing Chicago Center
Fri 01:20:31 PM 40.8697 -88.3486 205° Southwest 388 447 19,400 1,306 Climbing Chicago Center
Fri 01:21:33 PM 40.7500 -88.4244 206° Southwest 394 453 20,900 1,306 Climbing Chicago Center
Fri 01:22:35 PM 40.6483 -88.4861 205° Southwest 397 457 22,100 1,161 Climbing Chicago Center
Fri 01:23:37 PM 40.5469 -88.5500 206° Southwest 401 461 23,300 1,210 Climbing Chicago Center
Fri 01:24:39 PM 40.4425 -88.6117 204° Southwest 402 463 24,600 1,210 Climbing Chicago Center
Fri 01:25:41 PM 40.3406 -88.6739 205° Southwest 402 463 25,800 1,161 Climbing Chicago Center
Fri 01:26:43 PM 40.2383 -88.7356 205° Southwest 402 463 27,000 1,161 Climbing Chicago Center
Fri 01:27:45 PM 40.1375 -88.7986 206° Southwest 402 463 28,200 1,200 Climbing Chicago Center
Fri 01:28:48 PM 40.0369 -88.8600 205° Southwest 398 458 29,500 1,327 Climbing Chicago Center
Fri 01:29:38 PM 39.9347 -88.9194 204° Southwest 399 459 30,700 1,286 Climbing Kansas Center
Fri 01:30:40 PM 39.8347 -88.9806 205° Southwest 399 459 31,900 1,143 Climbing Kansas Center
Fri 01:31:44 PM 39.7344 -89.0386 204° Southwest 396 456 33,100 1,152 Climbing Kansas Center
Fri 01:32:45 PM 39.6339 -89.0994 205° Southwest 396 456 34,300 934 Climbing Kansas Center
Fri 01:33:46 PM 39.5356 -89.1594 205° Southwest 395 455 35,000 336 Climbing Kansas Center
Fri 01:34:50 PM 39.4297 -89.2192 204° Southwest 405 466 35,000 240 Level Kansas Center
Fri 01:35:51 PM 39.3161 -89.2869 205° Southwest 431 496 35,500 492 Climbing Kansas Center
Fri 01:36:52 PM 39.2067 -89.3533 205° Southwest 432 497 36,000 244 Climbing Kansas Center
Fri 01:37:54 PM 39.0806 -89.4272 204° Southwest 443 510 36,000  Level Kansas Center
Fri 01:38:55 PM 38.9625 -89.4961 204° Southwest 457 526 36,000  Level Kansas Center
Fri 01:39:59 PM 38.8378 -89.5672 204° Southwest 457 526 36,000  Level Kansas Center
Fri 01:41:00 PM 38.7219 -89.6356 205° Southwest 457 526 36,000  Level Kansas Center
Fri 01:42:01 PM 38.5992 -89.7064 204° Southwest 452 520 36,000  Level Kansas Center
Fri 01:43:04 PM 38.4833 -89.7733 204° Southwest 452 520 36,000  Level Kansas Center
Fri 01:44:05 PM 38.3708 -89.8372 204° Southwest 454 522 36,000  Level Kansas Center
Fri 01:45:05 PM 38.2550 -89.9039 204° Southwest 454 522 36,000  Level Kansas Center
Fri 01:46:09 PM 38.1397 -89.9697 204° Southwest 454 522 36,000  Level Kansas Center
Fri 01:47:10 PM 38.0006 -90.0478 204° Southwest 448 516 36,000  Level Kansas Center
Fri 01:48:13 PM 37.8897 -90.1106 204° Southwest 447 514 36,000  Level Kansas Center
Fri 01:49:15 PM 37.7753 -90.1756 204° Southwest 448 516 36,000  Level Kansas Center
Fri 01:50:17 PM 37.6614 -90.2408 204° Southwest 448 516 36,000  Level Kansas Center
Fri 01:51:18 PM 37.5539 -90.3147 209° Southwest 445 512 36,000  Level Kansas Center
Fri 01:52:18 PM 37.4458 -90.3919 210° Southwest 445 512 36,000  Level Kansas Center
Fri 01:53:21 PM 37.3164 -90.4861 210° Southwest 445 512 36,000  Level Kansas Center
Fri 01:54:23 PM 37.2100 -90.5594 209° Southwest 445 512 36,000  Level Kansas Center
Fri 01:55:24 PM 37.1025 -90.6344 209° Southwest 444 511 36,000  Level Kansas Center
Fri 01:56:27 PM 36.9936 -90.7086 209° Southwest 444 511 36,000 -194 Level Kansas Center
Fri 01:57:28 PM 36.8861 -90.7831 209° Southwest 444 511 35,600 -439 Descending Kansas Center
Fri 01:58:30 PM 36.7794 -90.8578 209° Southwest 444 511 35,100 -293 Descending Kansas Center
Fri 01:59:31 PM 36.6725 -90.9300 208° Southwest 442 509 35,000 -50 Descending Kansas Center
Fri 02:00:31 PM 36.5414 -91.0200 209° Southwest 443 510 35,000  Level Kansas Center
Fri 02:01:53 PM 36.4089 -91.1092 208° Southwest 450 518 35,000  Level Memphis Center
Fri 02:02:54 PM 36.2800 -91.1975 209° Southwest 449 517 35,000 -244 Level Memphis Center
Fri 02:03:56 PM 36.1722 -91.2703 209° Southwest 446 513 34,500 -780 Descending Memphis Center
Fri 02:04:57 PM 36.0664 -91.3411 208° Southwest 439 505 33,400 -1,279 Descending Memphis Center
Fri 02:05:58 PM 35.9619 -91.4106 208° Southwest 431 496 31,900 -1,707 Descending Memphis Center
Fri 02:07:00 PM 35.8528 -91.4856 209° Southwest 433 498 29,900 -2,293 Descending Memphis Center
Fri 02:08:01 PM 35.7444 -91.5578 208° Southwest 437 503 27,200 -2,780 Descending Memphis Center
Fri 02:09:03 PM 35.6389 -91.6269 208° Southwest 437 503 24,200 -3,171 Descending Memphis Center
Fri 02:10:04 PM 35.5383 -91.6944 209° Southwest 421 484 20,700 -3,846 Descending Memphis Center
Fri 02:10:21 PM 35.4958 -91.7228 208° Southwest 407 468 19,200 -3,833 Descending Memphis Center
Fri 02:10:40 PM 35.4714 -91.7400 210° Southwest 406 467 18,400 -2,133 Descending Memphis Center
Fri 02:11:06 PM 35.4392 -91.7603 207° Southwest 413 475 17,600 -3,300 Descending Memphis Center
Fri 02:11:40 PM 35.3681 -91.8058 208° Southwest 399 459 15,100 -3,443 Descending Memphis Center
Fri 02:12:07 PM 35.3417 -91.8244 210° Southwest 403 464 14,100 -3,148 Descending Memphis Center
Fri 02:12:41 PM 35.2769 -91.8681 209° Southwest 388 447 11,900 -2,903 Descending Memphis Center
Fri 02:13:09 PM 35.2453 -91.8869 206° Southwest 399 459 11,100 -1,700 Descending Memphis Center
Fri 02:13:41 PM 35.1833 -91.9281 208° Southwest 351 404 10,200 -984 Descending Memphis Center
Fri 02:14:10 PM 35.1458 -91.9525 208° Southwest 357 411 10,100 -984 Descending Memphis Center
Fri 02:14:42 PM 35.1103 -91.9761 209° Southwest 269 310 9,200 -1,645 Descending Memphis Center
Fri 02:15:12 PM 35.0806 -91.9956 208° Southwest 291 335 8,400 -1,672 Descending Memphis Center
Fri 02:15:43 PM 35.0458 -92.0261 216° Southwest 276 318 7,500 -1,770 Descending Memphis Center
Fri 02:16:13 PM 35.0169 -92.0536 218° Southwest 284 327 6,600 -1,600 Descending Memphis Center
Fri 02:16:43 PM 34.9817 -92.0889 219° Southwest 282 325 5,900 -1,161 Descending Memphis Center
Fri 02:17:15 PM 34.9553 -92.1133 217° Southwest 285 328 5,400 -885 Descending Memphis Center
Fri 02:17:44 PM 34.9256 -92.1431 219° Southwest 270 311 5,000 -393 Descending Memphis Center
Fri 02:18:16 PM 34.8981 -92.1714 220° Southwest 281 323 5,000  Level Memphis Center
Fri 02:18:44 PM 34.8636 -92.2056 219° Southwest 273 314 5,000  Level Memphis Center
Fri 02:19:18 PM 34.8403 -92.2297 220° Southwest 274 315 5,000  Level Memphis Center
Fri 02:19:45 PM 34.8094 -92.2594 218° Southwest 269 310 5,000  Level Memphis Center
Fri 02:20:19 PM 34.7828 -92.2881 221° Southwest 274 315 5,000 -787 Level Memphis Center
Fri 02:20:46 PM 34.7533 -92.3189 221° Southwest 255 293 4,200 -1,548 Descending Memphis Center
Fri 02:21:21 PM 34.7281 -92.3433 218° Southwest 267 307 3,400 -1,636 Descending Memphis Center
Fri 02:21:52 PM 34.6931 -92.3250 157° South 218 251 2,400 -1,180 Descending Memphis Center
Fri 02:22:22 PM 34.6825 -92.3058 124° Southeast 235 270 2,200 -885 Descending Memphis Center
Fri 02:22:53 PM 34.6825 -92.2725 90° East 141 162 1,500 -1,065 Descending Memphis Center
Fri 02:23:24 PM 34.6939 -92.2531 55° Northeast 175 201 1,100 -787 Descending Memphis Center
Fri 02:23:54 PM 34.7061 -92.2383 45° Northeast 122 140 700 -800 Descending Memphis Center
Fri 02:25:00 PM 34.7167 -92.2167 68° East  Level FlightAware

Login

Don't have an account? Register now (free) for customized features, flight alerts, and more!